createdAt,value
2024-01-16T00:00:18.549Z,35.45
2024-01-16T00:01:18.556Z,35.49
2024-01-16T00:02:18.591Z,35.47
2024-01-16T00:03:18.526Z,35.49
2024-01-16T00:04:18.592Z,35.43
2024-01-16T00:05:18.561Z,35.51
2024-01-16T00:06:18.547Z,35.47
2024-01-16T00:07:18.591Z,35.45
2024-01-16T00:08:18.575Z,35.42
2024-01-16T00:09:18.531Z,35.41
2024-01-16T00:10:18.556Z,35.41
2024-01-16T00:11:18.615Z,35.37
2024-01-16T00:12:18.554Z,35.37
2024-01-16T00:13:18.530Z,35.36
2024-01-16T00:14:18.584Z,35.30
2024-01-16T00:15:18.543Z,35.32
2024-01-16T00:16:18.551Z,35.35
2024-01-16T00:17:18.571Z,35.35
2024-01-16T00:18:18.713Z,35.34
2024-01-16T00:19:18.644Z,35.33
2024-01-16T00:20:18.599Z,35.34
2024-01-16T00:21:18.572Z,35.34
2024-01-16T00:22:18.579Z,35.33
2024-01-16T00:23:18.664Z,35.32
2024-01-16T00:24:18.704Z,35.32
2024-01-16T00:25:18.742Z,35.34
2024-01-16T00:26:18.828Z,35.32
2024-01-16T00:27:18.866Z,35.29
2024-01-16T00:28:18.922Z,35.29
2024-01-16T00:29:19.088Z,35.27
2024-01-16T00:30:19.057Z,35.28
2024-01-16T00:31:19.093Z,35.28
2024-01-16T00:32:19.193Z,35.28
2024-01-16T00:33:19.333Z,35.28
2024-01-16T00:34:19.300Z,35.31
2024-01-16T00:35:19.352Z,35.28
2024-01-16T00:36:19.388Z,35.29
2024-01-16T00:37:19.448Z,35.27
2024-01-16T00:38:19.570Z,35.25
2024-01-16T00:39:19.587Z,35.26
2024-01-16T00:40:19.668Z,35.26
2024-01-16T00:41:19.760Z,35.24
2024-01-16T00:42:19.786Z,35.28
2024-01-16T00:43:19.861Z,35.26
2024-01-16T00:44:19.988Z,35.23
2024-01-16T00:45:19.974Z,35.20
2024-01-16T00:46:20.083Z,35.22
2024-01-16T00:47:20.144Z,35.20
2024-01-16T00:48:20.278Z,35.21
2024-01-16T00:49:22.001Z,35.25
2024-01-16T00:50:20.361Z,35.21
2024-01-16T00:51:20.390Z,35.21
2024-01-16T00:52:20.439Z,35.20
2024-01-16T00:53:20.519Z,35.22
2024-01-16T00:54:20.585Z,35.21
2024-01-16T00:55:20.638Z,35.17
2024-01-16T00:56:20.802Z,35.17
2024-01-16T00:57:20.766Z,35.15
2024-01-16T00:58:20.841Z,35.18
2024-01-16T00:59:20.940Z,35.14
2024-01-16T01:00:20.966Z,35.12
2024-01-16T01:01:21.062Z,35.10
2024-01-16T01:02:21.102Z,35.14
2024-01-16T01:03:21.187Z,35.15
2024-01-16T01:04:21.214Z,35.10
2024-01-16T01:05:21.365Z,35.10
2024-01-16T01:06:21.444Z,35.11
2024-01-16T01:07:21.402Z,35.11
2024-01-16T01:08:21.513Z,35.05
2024-01-16T01:09:21.553Z,35.04
2024-01-16T01:10:21.693Z,35.01
2024-01-16T01:11:21.723Z,35.01
2024-01-16T01:12:21.772Z,35.04
2024-01-16T01:13:21.842Z,35.04
2024-01-16T01:14:22.012Z,35.02
2024-01-16T01:15:22.002Z,35.02
2024-01-16T01:16:22.180Z,35.02
2024-01-16T01:17:22.184Z,35.00
2024-01-16T01:18:22.280Z,35.01
2024-01-16T01:19:22.334Z,34.96
2024-01-16T01:20:22.441Z,34.98
2024-01-16T01:21:22.417Z,34.94
2024-01-16T01:22:22.467Z,35.00
2024-01-16T01:23:22.555Z,34.99
2024-01-16T01:24:22.625Z,34.97
2024-01-16T01:25:22.669Z,34.94
2024-01-16T01:26:22.807Z,34.96
2024-01-16T01:27:22.830Z,34.93
2024-01-16T01:28:22.885Z,34.94
2024-01-16T01:29:22.978Z,34.90
2024-01-16T01:30:23.074Z,34.94
2024-01-16T01:31:23.089Z,34.91
2024-01-16T01:32:23.382Z,34.92
2024-01-16T01:33:23.497Z,34.88
2024-01-16T01:34:23.387Z,34.89
2024-01-16T01:35:23.439Z,34.90
2024-01-16T01:36:23.446Z,34.91
2024-01-16T01:37:23.516Z,34.86
2024-01-16T01:38:23.648Z,34.87
2024-01-16T01:39:23.689Z,34.88
2024-01-16T01:40:23.730Z,34.84
2024-01-16T01:41:23.833Z,34.80
2024-01-16T01:42:23.857Z,34.84
2024-01-16T01:43:23.917Z,34.85
2024-01-16T01:44:24.001Z,34.83
2024-01-16T01:45:24.049Z,34.81
2024-01-16T01:46:24.093Z,34.83
2024-01-16T01:47:24.231Z,34.84
2024-01-16T01:48:24.362Z,34.79
2024-01-16T01:49:24.361Z,34.78
2024-01-16T01:50:24.398Z,34.78
2024-01-16T01:51:24.430Z,34.74
2024-01-16T01:52:24.481Z,34.81
2024-01-16T01:53:24.628Z,34.79
2024-01-16T01:54:24.600Z,34.84
2024-01-16T01:55:24.686Z,34.79
2024-01-16T01:56:24.807Z,34.70
2024-01-16T01:57:24.831Z,34.71
2024-01-16T01:58:24.885Z,34.72
2024-01-16T01:59:24.993Z,34.70
2024-01-16T02:00:25.016Z,34.69
2024-01-16T02:01:25.095Z,34.65
2024-01-16T02:02:25.198Z,34.67
2024-01-16T02:03:25.235Z,34.64
2024-01-16T02:04:25.306Z,34.67
2024-01-16T02:05:25.497Z,34.64
2024-01-16T02:06:25.469Z,34.63
2024-01-16T02:07:25.501Z,34.67
2024-01-16T02:08:25.583Z,34.68
2024-01-16T02:09:25.622Z,34.69
2024-01-16T02:10:25.718Z,34.72
2024-01-16T02:11:25.816Z,34.65
2024-01-16T02:12:26.136Z,34.65
2024-01-16T02:13:25.909Z,34.65
2024-01-16T02:14:26.093Z,34.65
2024-01-16T02:15:26.021Z,34.62
2024-01-16T02:16:26.055Z,34.65
2024-01-16T02:17:26.144Z,34.61
2024-01-16T02:18:26.179Z,34.60
2024-01-16T02:19:26.313Z,34.57
2024-01-16T02:20:26.334Z,34.61
2024-01-16T02:21:26.386Z,34.57
2024-01-16T02:22:26.423Z,34.58
2024-01-16T02:23:26.526Z,34.57
2024-01-16T02:24:26.554Z,34.55
2024-01-16T02:25:26.639Z,34.61
2024-01-16T02:26:26.805Z,34.58
2024-01-16T02:27:26.759Z,34.62
2024-01-16T02:28:26.810Z,34.62
2024-01-16T02:29:26.888Z,34.57
2024-01-16T02:30:26.933Z,34.52
2024-01-16T02:31:37.058Z,34.60
2024-01-16T02:32:27.043Z,34.65
2024-01-16T02:33:27.117Z,34.65
2024-01-16T02:34:26.982Z,34.70
2024-01-16T02:35:26.994Z,34.77
2024-01-16T02:36:26.963Z,34.83
2024-01-16T02:37:26.960Z,34.86
2024-01-16T02:38:26.976Z,34.86
2024-01-16T02:39:26.952Z,34.84
2024-01-16T02:40:26.943Z,34.85
2024-01-16T02:41:26.971Z,34.82
2024-01-16T02:42:26.960Z,34.80
2024-01-16T02:43:26.971Z,34.78
2024-01-16T02:44:27.050Z,34.77
2024-01-16T02:45:26.967Z,34.76
2024-01-16T02:46:26.955Z,34.74
2024-01-16T02:47:27.024Z,34.74
2024-01-16T02:48:27.074Z,34.71
2024-01-16T02:49:27.283Z,34.70
2024-01-16T02:50:27.004Z,34.67
2024-01-16T02:51:27.062Z,34.65
2024-01-16T02:52:27.032Z,34.65
2024-01-16T02:53:27.190Z,34.63
2024-01-16T02:54:27.199Z,34.61
2024-01-16T02:55:27.275Z,34.57
2024-01-16T02:56:27.351Z,34.55
2024-01-16T02:57:27.398Z,34.54
2024-01-16T02:58:27.454Z,34.53
2024-01-16T02:59:27.551Z,34.52
2024-01-16T03:00:27.576Z,34.47
2024-01-16T03:01:27.656Z,34.48
2024-01-16T03:02:27.766Z,34.48
2024-01-16T03:03:27.901Z,34.43
2024-01-16T03:04:27.836Z,34.46
2024-01-16T03:05:27.987Z,34.41
2024-01-16T03:06:28.070Z,34.42
2024-01-16T03:07:28.047Z,34.42
2024-01-16T03:08:28.133Z,34.39
2024-01-16T03:09:28.159Z,34.37
2024-01-16T03:10:28.283Z,34.33
2024-01-16T03:11:29.627Z,34.30
2024-01-16T03:12:28.347Z,34.31
2024-01-16T03:13:28.414Z,34.28
2024-01-16T03:14:28.501Z,34.26
2024-01-16T03:15:28.534Z,34.26
2024-01-16T03:16:28.616Z,34.24
2024-01-16T03:17:28.724Z,34.26
2024-01-16T03:18:28.961Z,34.25
2024-01-16T03:19:33.931Z,34.24
2024-01-16T03:20:28.770Z,34.24
2024-01-16T03:21:28.759Z,34.23
2024-01-16T03:22:28.753Z,34.19
2024-01-16T03:23:28.813Z,34.18
2024-01-16T03:24:28.774Z,34.19
2024-01-16T03:25:28.766Z,34.18
2024-01-16T03:26:28.796Z,34.16
2024-01-16T03:27:28.840Z,34.16
2024-01-16T03:28:28.858Z,34.18
2024-01-16T03:29:29.046Z,34.16
2024-01-16T03:30:29.148Z,34.14
2024-01-16T03:31:29.158Z,34.14
2024-01-16T03:32:29.117Z,34.14
2024-01-16T03:33:29.181Z,34.10
2024-01-16T03:34:29.249Z,34.11
2024-01-16T03:35:29.183Z,34.13
2024-01-16T03:36:29.232Z,34.13
2024-01-16T03:37:29.272Z,34.11
2024-01-16T03:38:29.329Z,34.07
2024-01-16T03:39:29.388Z,34.06
2024-01-16T03:40:29.400Z,34.04
2024-01-16T03:41:29.452Z,34.02
2024-01-16T03:42:29.471Z,34.02
2024-01-16T03:43:29.530Z,34.01
2024-01-16T03:44:29.565Z,33.98
2024-01-16T03:45:29.596Z,33.99
2024-01-16T03:46:29.629Z,33.97
2024-01-16T03:47:29.748Z,33.94
2024-01-16T03:48:29.816Z,33.93
2024-01-16T03:49:29.810Z,33.94
2024-01-16T03:50:29.814Z,33.94
2024-01-16T03:51:29.814Z,33.88
2024-01-16T03:52:29.830Z,33.87
2024-01-16T03:53:29.917Z,33.87
2024-01-16T03:54:29.884Z,33.83
2024-01-16T03:55:29.938Z,33.82
2024-01-16T03:56:29.995Z,33.81
2024-01-16T03:57:29.989Z,33.83
2024-01-16T03:58:30.010Z,33.80
2024-01-16T03:59:30.059Z,33.77
2024-01-16T04:00:30.120Z,33.77
2024-01-16T04:01:30.105Z,33.79
2024-01-16T04:02:30.261Z,33.75
2024-01-16T04:03:30.200Z,33.77
2024-01-16T04:04:30.180Z,33.76
2024-01-16T04:05:30.279Z,33.73
2024-01-16T04:06:30.395Z,33.73
2024-01-16T04:07:30.272Z,33.74
2024-01-16T04:08:30.332Z,33.69
2024-01-16T04:09:30.309Z,33.70
2024-01-16T04:10:30.332Z,33.66
2024-01-16T04:11:30.393Z,33.71
2024-01-16T04:12:30.374Z,33.68
2024-01-16T04:13:30.420Z,33.69
2024-01-16T04:14:30.481Z,33.65
2024-01-16T04:15:30.436Z,33.63
2024-01-16T04:16:30.445Z,33.64
2024-01-16T04:17:30.512Z,33.65
2024-01-16T04:18:30.593Z,33.61
2024-01-16T04:19:30.581Z,33.65
2024-01-16T04:20:30.529Z,33.60
2024-01-16T04:21:30.551Z,33.59
2024-01-16T04:22:30.588Z,33.60
2024-01-16T04:23:30.654Z,33.58
2024-01-16T04:24:30.629Z,33.59
2024-01-16T04:25:30.670Z,33.58
2024-01-16T04:26:30.691Z,33.57
2024-01-16T04:27:30.688Z,33.58
2024-01-16T04:28:30.696Z,33.55
2024-01-16T04:29:30.724Z,33.55
2024-01-16T04:30:30.820Z,33.54
2024-01-16T04:31:30.750Z,33.55
2024-01-16T04:32:30.857Z,33.53
2024-01-16T04:33:31.006Z,33.54
2024-01-16T04:34:30.900Z,33.51
2024-01-16T04:35:30.858Z,33.50
2024-01-16T04:36:30.853Z,33.54
2024-01-16T04:37:30.953Z,33.53
2024-01-16T04:38:30.883Z,33.49
2024-01-16T04:39:30.910Z,33.50
2024-01-16T04:40:38.192Z,33.54
2024-01-16T04:41:38.203Z,33.52
2024-01-16T04:42:38.173Z,33.50
2024-01-16T04:43:38.175Z,33.50
2024-01-16T04:44:38.190Z,33.52
2024-01-16T04:45:38.216Z,33.46
2024-01-16T04:46:38.194Z,33.45
2024-01-16T04:47:38.248Z,33.46
2024-01-16T04:48:38.273Z,33.46
2024-01-16T04:49:38.211Z,33.46
2024-01-16T04:50:38.239Z,33.45
2024-01-16T04:51:38.200Z,33.44
2024-01-16T04:52:38.192Z,33.45
2024-01-16T04:53:38.271Z,33.47
2024-01-16T04:54:38.202Z,33.45
2024-01-16T04:55:38.213Z,33.45
2024-01-16T04:56:38.212Z,33.44
2024-01-16T04:57:38.199Z,33.43
2024-01-16T04:58:38.206Z,33.44
2024-01-16T04:59:38.234Z,33.46
2024-01-16T05:00:38.222Z,33.45
2024-01-16T05:01:38.196Z,33.43
2024-01-16T05:02:38.236Z,33.43
2024-01-16T05:03:38.236Z,33.42
2024-01-16T05:04:38.214Z,33.42
2024-01-16T05:05:38.263Z,33.40
2024-01-16T05:06:38.293Z,33.41
2024-01-16T05:07:38.205Z,33.45
2024-01-16T05:08:38.257Z,33.39
2024-01-16T05:09:38.208Z,33.38
2024-01-16T05:10:38.206Z,33.39
2024-01-16T05:11:38.286Z,33.39
2024-01-16T05:12:38.218Z,33.38
2024-01-16T05:13:38.202Z,33.35
2024-01-16T05:14:38.255Z,33.36
2024-01-16T05:15:38.248Z,33.35
2024-01-16T05:16:38.263Z,33.35
2024-01-16T05:17:38.421Z,33.36
2024-01-16T05:18:38.413Z,33.31
2024-01-16T05:19:38.362Z,33.32
2024-01-16T05:20:38.389Z,33.29
2024-01-16T05:21:38.391Z,33.30
2024-01-16T05:22:38.398Z,33.27
2024-01-16T05:23:38.521Z,33.30
2024-01-16T05:24:38.425Z,33.28
2024-01-16T05:25:38.431Z,33.26
2024-01-16T05:26:38.499Z,33.26
2024-01-16T05:27:38.477Z,33.26
2024-01-16T05:28:38.503Z,33.24
2024-01-16T05:29:39.780Z,33.23
2024-01-16T05:30:38.732Z,33.23
2024-01-16T05:31:38.716Z,33.26
2024-01-16T05:32:38.832Z,33.20
2024-01-16T05:33:38.830Z,33.21
2024-01-16T05:34:38.880Z,33.25
2024-01-16T05:35:38.921Z,33.21
2024-01-16T05:36:38.831Z,33.23
2024-01-16T05:37:38.975Z,33.21
2024-01-16T05:38:38.941Z,33.20
2024-01-16T05:39:38.855Z,33.21
2024-01-16T05:40:38.876Z,33.23
2024-01-16T05:41:38.984Z,33.17
2024-01-16T05:42:38.936Z,33.19
2024-01-16T05:43:38.935Z,33.21
2024-01-16T05:44:38.979Z,33.20
2024-01-16T05:45:38.965Z,33.21
2024-01-16T05:46:38.965Z,33.15
2024-01-16T05:47:39.083Z,33.20
2024-01-16T05:48:39.104Z,33.17
2024-01-16T05:49:39.138Z,33.16
2024-01-16T05:50:39.218Z,33.19
2024-01-16T05:51:39.114Z,33.16
2024-01-16T05:52:40.918Z,33.15
2024-01-16T05:53:39.181Z,33.17
2024-01-16T05:54:39.181Z,33.19
2024-01-16T05:55:39.207Z,33.18
2024-01-16T05:56:39.268Z,33.17
2024-01-16T05:57:39.237Z,33.18
2024-01-16T05:58:39.259Z,33.16
2024-01-16T05:59:44.492Z,33.16
2024-01-16T06:00:39.299Z,33.12
2024-01-16T06:01:39.285Z,33.16
2024-01-16T06:02:39.346Z,33.17
2024-01-16T06:03:39.330Z,33.20
2024-01-16T06:04:39.474Z,33.18
2024-01-16T06:05:39.472Z,33.16
2024-01-16T06:06:39.453Z,33.12
2024-01-16T06:07:39.436Z,33.12
2024-01-16T06:08:39.492Z,33.11
2024-01-16T06:09:39.508Z,33.11
2024-01-16T06:10:39.484Z,33.09
2024-01-16T06:11:39.555Z,33.11
2024-01-16T06:12:39.532Z,33.10
2024-01-16T06:13:39.529Z,33.13
2024-01-16T06:14:39.581Z,33.13
2024-01-16T06:15:39.565Z,33.14
2024-01-16T06:16:39.556Z,33.10
2024-01-16T06:17:39.676Z,33.16
2024-01-16T06:18:39.695Z,33.13
2024-01-16T06:19:39.684Z,33.15
2024-01-16T06:20:39.652Z,33.13
2024-01-16T06:21:39.652Z,33.08
2024-01-16T06:22:39.658Z,33.10
2024-01-16T06:23:39.725Z,33.10
2024-01-16T06:24:39.713Z,33.08
2024-01-16T06:25:39.745Z,33.07
2024-01-16T06:26:39.741Z,33.16
2024-01-16T06:27:39.737Z,33.16
2024-01-16T06:28:39.738Z,33.02
2024-01-16T06:29:39.806Z,32.86
2024-01-16T06:30:40.017Z,32.92
2024-01-16T06:31:39.815Z,32.93
2024-01-16T06:32:40.052Z,32.84
2024-01-16T06:33:40.001Z,32.82
2024-01-16T06:34:39.902Z,32.84
2024-01-16T06:35:39.974Z,32.85
2024-01-16T06:36:39.932Z,32.91
2024-01-16T06:37:40.006Z,32.89
2024-01-16T06:38:40.036Z,32.96
2024-01-16T06:39:40.019Z,32.93
2024-01-16T06:40:40.042Z,33.05
2024-01-16T06:41:40.087Z,32.94
2024-01-16T06:42:40.075Z,32.98
2024-01-16T06:43:40.150Z,33.07
2024-01-16T06:44:40.141Z,33.05
2024-01-16T06:45:40.150Z,33.07
2024-01-16T06:46:40.139Z,33.10
2024-01-16T06:47:40.257Z,33.11
2024-01-16T06:48:40.395Z,33.13
2024-01-16T06:49:40.280Z,33.39
2024-01-16T06:50:40.290Z,33.37
2024-01-16T06:51:40.199Z,33.55
2024-01-16T06:52:40.208Z,33.78
2024-01-16T06:53:40.294Z,34.03
2024-01-16T06:54:40.238Z,33.87
2024-01-16T06:55:40.253Z,34.90
2024-01-16T06:56:40.286Z,34.77
2024-01-16T06:57:40.252Z,34.78
2024-01-16T06:58:40.245Z,35.12
2024-01-16T06:59:40.285Z,34.74
2024-01-16T07:00:40.296Z,34.56
2024-01-16T07:01:40.268Z,34.54
2024-01-16T07:02:40.285Z,34.62
2024-01-16T07:03:40.350Z,34.68
2024-01-16T07:04:40.291Z,34.92
2024-01-16T07:05:40.334Z,34.85
2024-01-16T07:06:40.343Z,34.94
2024-01-16T07:07:40.343Z,34.83
2024-01-16T07:08:40.384Z,35.03
2024-01-16T07:09:40.334Z,34.77
2024-01-16T07:10:40.322Z,35.04
2024-01-16T07:11:40.386Z,35.02
2024-01-16T07:12:40.339Z,34.99
2024-01-16T07:13:40.333Z,34.86
2024-01-16T07:14:40.491Z,34.84
2024-01-16T07:15:40.353Z,34.83
2024-01-16T07:16:40.374Z,34.79
2024-01-16T07:17:40.471Z,34.86
2024-01-16T07:18:40.790Z,34.86
2024-01-16T07:19:40.451Z,34.94
2024-01-16T07:20:40.484Z,34.84
2024-01-16T07:21:40.420Z,34.78
2024-01-16T07:22:40.429Z,34.80
2024-01-16T07:23:40.503Z,34.86
2024-01-16T07:24:40.453Z,34.84
2024-01-16T07:25:40.480Z,34.84
2024-01-16T07:26:40.509Z,34.81
2024-01-16T07:27:40.561Z,34.78
2024-01-16T07:28:40.506Z,34.80
2024-01-16T07:29:40.595Z,34.79
2024-01-16T07:30:40.603Z,34.80
2024-01-16T07:31:40.556Z,34.79
2024-01-16T07:32:40.666Z,34.78
2024-01-16T07:33:40.869Z,34.73
2024-01-16T07:34:40.636Z,34.74
2024-01-16T07:35:40.650Z,34.74
2024-01-16T07:36:40.655Z,34.73
2024-01-16T07:37:40.696Z,34.71
2024-01-16T07:38:40.714Z,34.70
2024-01-16T07:39:40.759Z,34.70
2024-01-16T07:40:40.755Z,34.68
2024-01-16T07:41:40.804Z,34.67
2024-01-16T07:42:40.765Z,34.66
2024-01-16T07:43:40.805Z,34.63
2024-01-16T07:44:40.826Z,34.65
2024-01-16T07:45:40.848Z,34.62
2024-01-16T07:46:40.820Z,34.65
2024-01-16T07:47:40.926Z,34.61
2024-01-16T07:48:40.947Z,34.60
2024-01-16T07:49:40.983Z,34.60
2024-01-16T07:50:40.960Z,34.61
2024-01-16T07:51:40.994Z,34.60
2024-01-16T07:52:40.936Z,34.58
2024-01-16T07:53:41.015Z,34.56
2024-01-16T07:54:40.991Z,34.55
2024-01-16T07:55:40.988Z,34.53
2024-01-16T07:56:41.036Z,34.54
2024-01-16T07:57:41.001Z,34.53
2024-01-16T07:58:41.005Z,34.52
2024-01-16T07:59:41.075Z,34.50
2024-01-16T08:00:41.109Z,34.50
2024-01-16T08:01:41.131Z,34.51
2024-01-16T08:02:41.094Z,34.47
2024-01-16T08:03:41.091Z,34.47
2024-01-16T08:04:41.069Z,34.46
2024-01-16T08:05:41.227Z,34.46
2024-01-16T08:06:41.169Z,34.45
2024-01-16T08:07:41.153Z,34.46
2024-01-16T08:08:41.131Z,34.45
2024-01-16T08:09:46.222Z,34.45
2024-01-16T08:10:41.125Z,34.42
2024-01-16T08:11:41.149Z,34.43
2024-01-16T08:12:41.141Z,34.41
2024-01-16T08:13:41.149Z,34.39
2024-01-16T08:14:41.165Z,34.40
2024-01-16T08:15:41.171Z,34.39
2024-01-16T08:16:41.172Z,34.35
2024-01-16T08:17:41.293Z,34.35
2024-01-16T08:18:41.377Z,34.34
2024-01-16T08:19:41.290Z,34.33
2024-01-16T08:20:41.290Z,34.33
2024-01-16T08:21:41.258Z,34.31
2024-01-16T08:22:41.278Z,34.30
2024-01-16T08:23:41.313Z,34.30
2024-01-16T08:24:41.312Z,34.29
2024-01-16T08:25:41.372Z,34.28
2024-01-16T08:26:41.368Z,34.28
2024-01-16T08:27:41.386Z,34.28
2024-01-16T08:28:41.377Z,34.26
2024-01-16T08:29:41.437Z,34.24
2024-01-16T08:30:41.445Z,34.19
2024-01-16T08:31:41.436Z,34.19
2024-01-16T08:32:41.486Z,34.20
2024-01-16T08:33:46.462Z,34.21
2024-01-16T08:34:42.548Z,34.22
2024-01-16T08:35:41.560Z,34.20
2024-01-16T08:36:41.467Z,34.21
2024-01-16T08:37:41.485Z,34.18
2024-01-16T08:38:41.516Z,34.19
2024-01-16T08:39:41.486Z,34.16
2024-01-16T08:40:41.602Z,34.13
2024-01-16T08:41:41.539Z,34.14
2024-01-16T08:42:41.484Z,34.10
2024-01-16T08:43:41.503Z,34.10
2024-01-16T08:44:41.519Z,34.11
2024-01-16T08:45:41.486Z,34.07
2024-01-16T08:46:41.501Z,34.06
2024-01-16T08:47:41.577Z,34.05
2024-01-16T08:48:41.583Z,34.07
2024-01-16T08:49:41.566Z,34.01
2024-01-16T08:50:41.524Z,33.92
2024-01-16T08:51:41.529Z,33.93
2024-01-16T08:52:41.498Z,35.43
2024-01-16T08:53:41.537Z,35.83
2024-01-16T08:54:41.491Z,35.71
2024-01-16T08:55:41.508Z,37.03
2024-01-16T08:56:41.513Z,36.51
2024-01-16T08:57:41.502Z,36.41
2024-01-16T08:58:41.799Z,36.20
2024-01-16T08:59:41.639Z,36.16
2024-01-16T09:00:41.686Z,36.25
2024-01-16T09:01:41.697Z,36.29
2024-01-16T09:02:41.745Z,36.48
2024-01-16T09:03:41.753Z,36.70
2024-01-16T09:04:41.806Z,36.72
2024-01-16T09:05:41.894Z,36.70
2024-01-16T09:06:41.951Z,36.81
2024-01-16T09:07:41.770Z,36.78
2024-01-16T09:08:41.843Z,36.81
2024-01-16T09:09:41.796Z,36.81
2024-01-16T09:10:41.851Z,36.84
2024-01-16T09:11:41.949Z,37.09
2024-01-16T09:12:41.973Z,37.08
2024-01-16T09:13:49.233Z,37.23
2024-01-16T09:14:49.336Z,37.31
2024-01-16T09:15:49.264Z,37.35
2024-01-16T09:16:49.328Z,37.40
2024-01-16T09:17:49.386Z,37.58
2024-01-16T09:18:49.347Z,37.88
2024-01-16T09:19:49.224Z,37.84
2024-01-16T09:20:49.248Z,38.18
2024-01-16T09:21:49.249Z,38.26
2024-01-16T09:22:49.253Z,38.37
2024-01-16T09:23:49.262Z,38.33
2024-01-16T09:24:49.238Z,38.55
2024-01-16T09:25:49.264Z,38.56
2024-01-16T09:26:49.355Z,38.57
2024-01-16T09:27:49.239Z,38.87
2024-01-16T09:28:49.252Z,38.54
2024-01-16T09:29:49.279Z,38.52
2024-01-16T09:30:49.409Z,38.55
2024-01-16T09:31:49.307Z,38.66
2024-01-16T09:32:49.372Z,39.02
2024-01-16T09:33:49.342Z,38.78
2024-01-16T09:34:49.438Z,38.87
2024-01-16T09:35:49.320Z,38.76
2024-01-16T09:36:49.232Z,38.96
2024-01-16T09:37:49.240Z,39.03
2024-01-16T09:38:49.384Z,38.99
2024-01-16T09:39:49.227Z,39.52
2024-01-16T09:40:49.264Z,39.35
2024-01-16T09:41:49.300Z,39.49
2024-01-16T09:42:49.239Z,39.72
2024-01-16T09:43:49.230Z,39.79
2024-01-16T09:44:49.304Z,39.84
2024-01-16T09:45:49.235Z,39.51
2024-01-16T09:46:49.297Z,39.68
2024-01-16T09:47:50.960Z,39.39
2024-01-16T09:48:49.358Z,39.58
2024-01-16T09:49:49.291Z,39.61
2024-01-16T09:50:49.367Z,39.76
2024-01-16T09:51:49.259Z,39.50
2024-01-16T09:52:49.260Z,39.30
2024-01-16T09:53:49.328Z,39.65
2024-01-16T09:54:49.272Z,35.44
2024-01-16T09:55:49.246Z,29.92
2024-01-16T09:56:49.362Z,29.08
2024-01-16T09:57:49.286Z,28.52
2024-01-16T09:58:49.312Z,27.95
2024-01-16T09:59:49.507Z,28.07
2024-01-16T10:00:49.387Z,27.75
2024-01-16T10:01:49.431Z,27.44
2024-01-16T10:02:49.475Z,27.09
2024-01-16T10:03:51.934Z,27.32
2024-01-16T10:04:49.513Z,27.16
2024-01-16T10:05:49.614Z,27.30
2024-01-16T10:06:49.625Z,27.52
2024-01-16T10:07:49.464Z,27.48
2024-01-16T10:08:49.568Z,27.78
2024-01-16T10:09:49.468Z,28.35
2024-01-16T10:10:51.053Z,28.57
2024-01-16T10:11:49.479Z,28.64
2024-01-16T10:12:49.463Z,28.72
2024-01-16T10:13:49.469Z,28.78
2024-01-16T10:14:49.595Z,28.74
2024-01-16T10:15:49.462Z,28.72
2024-01-16T10:16:49.457Z,28.93
2024-01-16T10:17:49.567Z,29.08
2024-01-16T10:18:49.558Z,29.11
2024-01-16T10:19:49.683Z,29.38
2024-01-16T10:20:49.568Z,29.63
2024-01-16T10:21:49.460Z,29.86
2024-01-16T10:22:49.484Z,30.02
2024-01-16T10:23:49.534Z,30.08
2024-01-16T10:24:49.543Z,29.93
2024-01-16T10:25:49.558Z,30.40
2024-01-16T10:26:49.626Z,31.06
2024-01-16T10:27:49.666Z,31.58
2024-01-16T10:28:49.700Z,32.00
2024-01-16T10:29:50.791Z,32.47
2024-01-16T10:30:49.825Z,32.81
2024-01-16T10:31:49.839Z,32.83
2024-01-16T10:32:49.949Z,32.68
2024-01-16T10:33:50.016Z,32.57
2024-01-16T10:34:50.013Z,32.51
2024-01-16T10:35:49.993Z,32.34
2024-01-16T10:36:50.050Z,32.65
2024-01-16T10:37:50.064Z,33.16
2024-01-16T10:38:50.137Z,33.59
2024-01-16T10:39:50.142Z,33.83
2024-01-16T10:40:50.199Z,34.22
2024-01-16T10:41:50.337Z,34.26
2024-01-16T10:42:50.335Z,34.14
2024-01-16T10:43:50.385Z,34.08
2024-01-16T10:44:50.527Z,33.86
2024-01-16T10:45:50.516Z,33.87
2024-01-16T10:46:50.574Z,33.87
2024-01-16T10:47:50.769Z,33.65
2024-01-16T10:48:50.685Z,33.63
2024-01-16T10:49:50.713Z,33.92
2024-01-16T10:50:50.767Z,34.44
2024-01-16T10:51:50.801Z,35.55
2024-01-16T10:52:50.804Z,35.49
2024-01-16T10:53:50.902Z,35.62
2024-01-16T10:54:50.863Z,35.24
2024-01-16T10:55:50.937Z,33.95
2024-01-16T10:56:51.038Z,31.51
2024-01-16T10:57:51.017Z,31.69
2024-01-16T10:58:51.064Z,32.09
2024-01-16T10:59:51.095Z,32.33
2024-01-16T11:00:51.131Z,33.51
2024-01-16T11:01:51.159Z,33.45
2024-01-16T11:02:51.350Z,33.40
2024-01-16T11:03:51.355Z,33.56
2024-01-16T11:04:51.276Z,33.40
2024-01-16T11:05:51.417Z,33.40
2024-01-16T11:06:51.448Z,33.75
2024-01-16T11:07:51.409Z,33.88
2024-01-16T11:08:51.591Z,34.00
2024-01-16T11:09:51.456Z,34.05
2024-01-16T11:10:51.465Z,34.09
2024-01-16T11:11:51.578Z,34.25
2024-01-16T11:12:51.483Z,34.48
2024-01-16T11:13:51.536Z,34.52
2024-01-16T11:14:51.664Z,34.68
2024-01-16T11:15:51.683Z,34.71
2024-01-16T11:16:51.728Z,34.87
2024-01-16T11:17:51.827Z,34.94
2024-01-16T11:18:51.844Z,35.00
2024-01-16T11:21:04.180Z,35.10
2024-01-16T11:21:52.943Z,35.28
2024-01-16T11:22:51.910Z,35.38
2024-01-16T11:23:52.008Z,35.36
2024-01-16T11:24:51.883Z,35.56
2024-01-16T11:25:51.892Z,35.68
2024-01-16T11:26:51.962Z,35.80
2024-01-16T11:27:52.047Z,35.85
2024-01-16T11:28:51.905Z,35.93
2024-01-16T11:29:51.888Z,35.99
2024-01-16T11:30:51.927Z,36.03
2024-01-16T11:31:54.727Z,36.13
2024-01-16T11:32:52.956Z,36.18
2024-01-16T11:33:51.996Z,36.37
2024-01-16T11:34:51.925Z,36.43
2024-01-16T11:35:51.903Z,36.50
2024-01-16T11:36:51.897Z,36.68
2024-01-16T11:37:51.886Z,36.79
2024-01-16T11:38:51.945Z,37.21
2024-01-16T11:39:51.915Z,37.12
2024-01-16T11:40:51.909Z,37.02
2024-01-16T11:41:51.979Z,37.23
2024-01-16T11:42:52.035Z,36.97
2024-01-16T11:43:52.045Z,36.90
2024-01-16T11:44:52.264Z,36.95
2024-01-16T11:45:52.169Z,36.70
2024-01-16T11:46:52.222Z,36.53
2024-01-16T11:47:52.363Z,36.44
2024-01-16T11:48:52.529Z,36.62
2024-01-16T11:49:52.422Z,36.92
2024-01-16T11:50:52.487Z,37.24
2024-01-16T11:51:52.505Z,37.44
2024-01-16T11:52:52.571Z,37.67
2024-01-16T11:53:52.631Z,37.56
2024-01-16T11:54:52.660Z,37.55
2024-01-16T11:55:52.698Z,37.68
2024-01-16T11:56:52.769Z,37.61
2024-01-16T11:57:52.793Z,37.72
2024-01-16T11:58:52.812Z,37.59
2024-01-16T11:59:52.920Z,37.71
2024-01-16T12:00:52.883Z,37.61
2024-01-16T12:01:52.897Z,37.66
2024-01-16T12:02:52.977Z,37.90
2024-01-16T12:03:52.957Z,37.83
2024-01-16T12:04:52.953Z,37.89
2024-01-16T12:05:53.047Z,37.92
2024-01-16T12:06:53.140Z,38.02
2024-01-16T12:07:52.999Z,37.89
2024-01-16T12:08:53.096Z,37.88
2024-01-16T12:09:53.039Z,37.75
2024-01-16T12:10:52.998Z,37.75
2024-01-16T12:11:53.035Z,37.99
2024-01-16T12:12:53.013Z,37.82
2024-01-16T12:13:52.994Z,37.92
2024-01-16T12:14:53.212Z,37.90
2024-01-16T12:15:53.033Z,38.39
2024-01-16T12:16:53.068Z,38.36
2024-01-16T12:17:53.234Z,38.34
2024-01-16T12:18:53.259Z,38.38
2024-01-16T12:19:53.288Z,38.19
2024-01-16T12:20:53.294Z,37.99
2024-01-16T12:21:53.315Z,37.86
2024-01-16T12:22:53.321Z,37.90
2024-01-16T12:24:01.005Z,37.94
2024-01-16T12:24:54.389Z,37.97
2024-01-16T12:26:01.956Z,37.94
2024-01-16T12:26:54.491Z,38.04
2024-01-16T12:27:53.386Z,38.04
2024-01-16T12:28:55.550Z,38.01
2024-01-16T12:29:53.413Z,38.05
2024-01-16T12:30:53.478Z,38.01
2024-01-16T12:31:53.419Z,38.06
2024-01-16T12:33:02.323Z,38.15
2024-01-16T12:34:01.592Z,38.22
2024-01-16T12:34:54.482Z,38.36
2024-01-16T12:35:53.461Z,38.63
2024-01-16T12:36:53.415Z,38.42
2024-01-16T12:37:53.392Z,38.29
2024-01-16T12:38:53.487Z,38.27
2024-01-16T12:39:53.442Z,38.19
2024-01-16T12:40:53.425Z,38.09
2024-01-16T12:41:53.476Z,38.14
2024-01-16T12:42:53.403Z,37.98
2024-01-16T12:44:00.890Z,37.95
2024-01-16T12:44:54.446Z,37.88
2024-01-16T12:45:53.420Z,37.89
2024-01-16T12:46:53.455Z,37.85
2024-01-16T12:47:54.811Z,37.90
2024-01-16T12:49:00.599Z,37.81
2024-01-16T12:49:54.495Z,37.80
2024-01-16T12:50:53.449Z,37.76
2024-01-16T12:51:53.435Z,37.80
2024-01-16T12:52:53.453Z,37.74
2024-01-16T12:53:53.483Z,37.69